PAL210 YSSY-YMML
Flight info
| Callsign | PAL210 |
|---|---|
| Flight time | N/A |
| Altitude | 36000 |
| Route | YSSY/34L 3350S15100E WOL LEECE Q29 BOOIN BOIN1A/34 |
| Aircraft | A20N/M-SDE3/L |
Departure
| Time | N/A |
|---|---|
| Airport | Sydney Kingsford Smith International Airport (YSSY) |
Arrival
| Time | 2026-05-01 08:04 |
|---|---|
| Airport | Melbourne Airport (YMML) |
| Time | Latitude | Longitude | Altitude | Speed | Heading |
|---|---|---|---|---|---|
| 2026-05-01 07:23 | -35.88194 | 148.41827 | 36232 ft | 371 kts | 241° |
| 2026-05-01 07:24 | -35.92736 | 148.34119 | 36235 ft | 371 kts | 241° |
| 2026-05-01 07:24 | -35.95729 | 148.29002 | 36233 ft | 370 kts | 241° |
| 2026-05-01 07:25 | -35.98745 | 148.23839 | 36232 ft | 370 kts | 241° |
| 2026-05-01 07:25 | -36.01755 | 148.18680 | 36232 ft | 370 kts | 241° |
| 2026-05-01 07:26 | -36.04750 | 148.13541 | 36232 ft | 370 kts | 241° |
| 2026-05-01 07:26 | -36.07742 | 148.08398 | 36232 ft | 370 kts | 241° |
| 2026-05-01 07:27 | -36.10759 | 148.03212 | 36231 ft | 370 kts | 241° |
| 2026-05-01 07:27 | -36.13761 | 147.98085 | 36232 ft | 370 kts | 241° |
| 2026-05-01 07:28 | -36.16767 | 147.92926 | 36232 ft | 370 kts | 241° |
| 2026-05-01 07:28 | -36.19757 | 147.87770 | 36232 ft | 370 kts | 241° |
| 2026-05-01 07:29 | -36.22750 | 147.82596 | 36232 ft | 370 kts | 241° |
| 2026-05-01 07:29 | -36.25738 | 147.77417 | 36232 ft | 370 kts | 241° |
| 2026-05-01 07:30 | -36.28734 | 147.72218 | 36232 ft | 370 kts | 241° |
| 2026-05-01 07:30 | -36.31712 | 147.67040 | 36232 ft | 370 kts | 241° |
| 2026-05-01 07:31 | -36.34685 | 147.61861 | 36232 ft | 370 kts | 241° |
| 2026-05-01 07:32 | -36.42121 | 147.48879 | 36232 ft | 370 kts | 241° |
| 2026-05-01 07:33 | -36.46570 | 147.41084 | 36232 ft | 370 kts | 241° |
| 2026-05-01 07:33 | -36.51020 | 147.33267 | 36235 ft | 370 kts | 242° |
| 2026-05-01 07:34 | -36.55445 | 147.25455 | 36232 ft | 369 kts | 242° |
| 2026-05-01 07:35 | -36.58390 | 147.20253 | 36232 ft | 369 kts | 242° |
| 2026-05-01 07:35 | -36.61338 | 147.15045 | 36232 ft | 369 kts | 242° |
| 2026-05-01 07:36 | -36.64291 | 147.09824 | 36232 ft | 370 kts | 242° |
| 2026-05-01 07:36 | -36.67252 | 147.04582 | 36232 ft | 370 kts | 242° |
| 2026-05-01 07:37 | -36.71688 | 146.96710 | 36232 ft | 371 kts | 243° |
| 2026-05-01 07:37 | -36.74636 | 146.91469 | 36232 ft | 372 kts | 243° |
| 2026-05-01 07:38 | -36.77610 | 146.86173 | 36232 ft | 373 kts | 243° |
| 2026-05-01 07:39 | -36.82046 | 146.78253 | 36047 ft | 374 kts | 243° |
| 2026-05-01 07:39 | -36.83522 | 146.75617 | 35701 ft | 372 kts | 243° |
| 2026-05-01 07:39 | -36.86466 | 146.70354 | 34704 ft | 368 kts | 243° |
| 2026-05-01 07:40 | -36.87907 | 146.67772 | 34159 ft | 368 kts | 243° |
| 2026-05-01 07:40 | -36.89365 | 146.65158 | 33587 ft | 368 kts | 243° |
| 2026-05-01 07:40 | -36.90830 | 146.62524 | 32979 ft | 369 kts | 243° |
| 2026-05-01 07:40 | -36.92286 | 146.59904 | 32364 ft | 370 kts | 242° |
| 2026-05-01 07:41 | -36.93750 | 146.57272 | 31725 ft | 371 kts | 242° |
| 2026-05-01 07:41 | -36.95216 | 146.54633 | 31072 ft | 373 kts | 242° |
| 2026-05-01 07:41 | -36.98180 | 146.49293 | 29727 ft | 377 kts | 242° |
| 2026-05-01 07:42 | -36.99667 | 146.46613 | 29051 ft | 378 kts | 241° |
| 2026-05-01 07:42 | -37.01163 | 146.43915 | 28364 ft | 380 kts | 241° |
| 2026-05-01 07:42 | -37.02663 | 146.41208 | 27814 ft | 377 kts | 241° |
| 2026-05-01 07:42 | -37.04137 | 146.38551 | 27368 ft | 373 kts | 241° |
| 2026-05-01 07:43 | -37.05599 | 146.35915 | 26916 ft | 369 kts | 241° |
| 2026-05-01 07:43 | -37.07048 | 146.33292 | 26470 ft | 365 kts | 242° |
| 2026-05-01 07:43 | -37.09892 | 146.28124 | 25589 ft | 359 kts | 242° |
| 2026-05-01 07:44 | -37.12722 | 146.23019 | 24698 ft | 353 kts | 242° |
| 2026-05-01 07:44 | -37.15499 | 146.17999 | 23801 ft | 349 kts | 241° |
| 2026-05-01 07:45 | -37.16855 | 146.15538 | 23358 ft | 347 kts | 241° |
| 2026-05-01 07:45 | -37.18224 | 146.13051 | 22906 ft | 345 kts | 241° |
| 2026-05-01 07:45 | -37.19584 | 146.10574 | 22446 ft | 343 kts | 241° |
| 2026-05-01 07:45 | -37.20915 | 146.08150 | 22001 ft | 342 kts | 241° |
| 2026-05-01 07:46 | -37.22264 | 146.05688 | 21544 ft | 340 kts | 241° |
| 2026-05-01 07:46 | -37.23600 | 146.03250 | 21092 ft | 338 kts | 241° |
| 2026-05-01 07:46 | -37.26239 | 145.98427 | 20200 ft | 335 kts | 240° |
| 2026-05-01 07:47 | -37.27537 | 145.96051 | 19758 ft | 333 kts | 240° |
| 2026-05-01 07:47 | -37.28848 | 145.93651 | 19316 ft | 332 kts | 240° |
| 2026-05-01 07:47 | -37.30147 | 145.91270 | 18871 ft | 330 kts | 240° |
| 2026-05-01 07:47 | -37.31443 | 145.88895 | 18431 ft | 328 kts | 240° |
| 2026-05-01 07:48 | -37.33995 | 145.84212 | 17561 ft | 325 kts | 240° |
| 2026-05-01 07:48 | -37.35260 | 145.81889 | 17124 ft | 324 kts | 240° |
| 2026-05-01 07:48 | -37.36533 | 145.79547 | 16685 ft | 322 kts | 240° |
| 2026-05-01 07:49 | -37.37773 | 145.77266 | 16258 ft | 321 kts | 240° |
| 2026-05-01 07:49 | -37.40282 | 145.72646 | 15393 ft | 318 kts | 239° |
| 2026-05-01 07:49 | -37.41509 | 145.70381 | 14968 ft | 316 kts | 239° |
| 2026-05-01 07:50 | -37.42751 | 145.68089 | 14523 ft | 315 kts | 239° |
| 2026-05-01 07:50 | -37.45208 | 145.63556 | 13671 ft | 313 kts | 238° |
| 2026-05-01 07:50 | -37.46465 | 145.61360 | 13262 ft | 312 kts | 237° |
| 2026-05-01 07:51 | -37.47754 | 145.59166 | 12847 ft | 310 kts | 237° |
| 2026-05-01 07:51 | -37.49023 | 145.57004 | 12440 ft | 309 kts | 237° |
| 2026-05-01 07:51 | -37.50286 | 145.54845 | 12032 ft | 307 kts | 237° |
| 2026-05-01 07:52 | -37.52789 | 145.50537 | 11230 ft | 304 kts | 236° |
| 2026-05-01 07:52 | -37.54031 | 145.48398 | 10833 ft | 302 kts | 236° |
| 2026-05-01 07:52 | -37.55254 | 145.46287 | 10442 ft | 300 kts | 236° |
| 2026-05-01 07:53 | -37.57607 | 145.42239 | 10165 ft | 265 kts | 236° |
| 2026-05-01 07:53 | -37.58683 | 145.40387 | 10107 ft | 255 kts | 236° |
| 2026-05-01 07:53 | -37.59704 | 145.38621 | 10050 ft | 250 kts | 236° |
| 2026-05-01 07:53 | -37.60735 | 145.36836 | 9739 ft | 250 kts | 236° |
| 2026-05-01 07:54 | -37.62756 | 145.33325 | 9143 ft | 247 kts | 236° |
| 2026-05-01 07:55 | -37.65746 | 145.28116 | 8274 ft | 242 kts | 235° |
| 2026-05-01 07:55 | -37.67718 | 145.24692 | 7704 ft | 239 kts | 235° |
| 2026-05-01 07:56 | -37.70607 | 145.19670 | 6870 ft | 234 kts | 234° |
| 2026-05-01 07:56 | -37.72506 | 145.16368 | 6320 ft | 232 kts | 234° |
| 2026-05-01 07:57 | -37.73460 | 145.14706 | 6043 ft | 232 kts | 234° |
| 2026-05-01 07:57 | -37.75335 | 145.11441 | 5577 ft | 229 kts | 233° |
| 2026-05-01 07:58 | -37.77224 | 145.08151 | 5346 ft | 232 kts | 233° |
| 2026-05-01 07:58 | -37.79110 | 145.04855 | 4810 ft | 230 kts | 233° |
| 2026-05-01 07:59 | -37.80947 | 145.01556 | 4275 ft | 230 kts | 240° |
| 2026-05-01 07:59 | -37.81937 | 144.97723 | 3748 ft | 231 kts | 255° |
| 2026-05-01 08:00 | -37.83058 | 144.89880 | 3085 ft | 211 kts | 258° |
| 2026-05-01 08:01 | -37.80995 | 144.86208 | 2614 ft | 199 kts | 352° |
| 2026-05-01 08:01 | -37.79682 | 144.86069 | 2531 ft | 177 kts | 354° |
| 2026-05-01 08:01 | -37.78595 | 144.85605 | 2488 ft | 161 kts | 321° |
| 2026-05-01 08:02 | -37.76408 | 144.85004 | 2723 ft | 170 kts | 5° |
| 2026-05-01 08:02 | -37.75279 | 144.85294 | 2439 ft | 163 kts | 12° |
| 2026-05-01 08:03 | -37.73127 | 144.85138 | 1727 ft | 151 kts | 348° |
| 2026-05-01 08:03 | -37.72125 | 144.84895 | 1404 ft | 146 kts | 344° |
| 2026-05-01 08:03 | -37.70153 | 144.84448 | 808 ft | 142 kts | 345° |
| 2026-05-01 08:04 | -37.68203 | 144.84035 | 456 ft | 137 kts | 347° |
| 2026-05-01 08:04 | -37.67086 | 144.83829 | 442 ft | 31 kts | 5° |
| 2026-05-01 08:05 | -37.66851 | 144.83907 | 442 ft | 0 kts | 21° |
| 2026-05-01 08:06 | -37.66843 | 144.83911 | 442 ft | 5 kts | 21° |
| 2026-05-01 08:06 | -37.66806 | 144.83948 | 442 ft | 0 kts | 70° |
| 2026-05-01 08:07 | -37.66798 | 144.83960 | 442 ft | 6 kts | 47° |